Dati Storici

Data ora Umidita' aria (%) Temperatura aria (°C) Rad globale (W/m²) Gonioanemometro (°) Tacoanemometro (m/s) Pioggia (mm)
10-06-2020 04:50 97.8 % 15.154 -53.293 0.007 0 0
10-06-2020 04:40 97.8 % 15.109 -80.12 0.009 0 0
10-06-2020 04:30 97.7 % 15.109 -58.573 0.821 0 0
10-06-2020 04:20 97.7 % 15.085 -55.736 1.409 0 0
10-06-2020 04:10 97.7 % 15.143 -57.073 0.313 0 0
10-06-2020 04:00 97.7 % 15.194 -48.24 0.92 0 0
10-06-2020 03:50 96.1 % 15.508 -57.791 0.948 0 0
10-06-2020 03:40 94.6 % 15.414 -66.72 0.951 0 0
10-06-2020 03:30 92.9 % 15.718 -64.04 1.117 0 0
10-06-2020 03:20 92.4 % 15.763 -70.076 0.003 0 0
10-06-2020 03:10 91.7 % 15.732 -73.938 0.003 0 0
10-06-2020 03:00 90.8 % 15.663 -69.013 0.003 0 0
10-06-2020 02:50 89.4 % 15.797 -54.194 0.58 0 0
10-06-2020 02:40 88.4 % 15.928 -52.504 0.665 0 0
10-06-2020 02:30 88.5 % 15.942 -47.875 -0.002 0 0
10-06-2020 02:20 88.6 % 15.928 -61.204 -0.002 0 0
10-06-2020 02:10 88.6 % 15.895 -52.234 -0.002 0 0
10-06-2020 02:00 87.6 % 15.974 -57.707 2.06 0 0
10-06-2020 01:50 85.9 % 16.097 -50.965 0.245 0 0
10-06-2020 01:40 84.9 % 16.188 -54.103 0.811 0 0

I dati sono presentati in modo automatico a scopo informativo. In seguito a verifica i dati possono subire modifiche o essere invalidati e non riportati negli archivi definitivi.